Galesburg, Iowa
Current Conditions -  °F | °C
As of 6:15 PM on Monday 20 Oct 2014 (Local Time) from KTNU Reporting Station
Clear Clear  
Wind Chill: 64°   Ceiling: Unl
Heat Index: 64°   Visibility: 10mi
Dew Point: 41°   Wind: 6mph
Humidity: 42%   Direction: 300°WNW
Pressure: 30"   Gusts: NA
Location:  41.587°N, 93.0159°W
Report Text: KTNU 202315Z AUTO 30005KT 10SM CLR 18/05 A3000 RMK AO2
Loading
Personal Weather Stations






























Interactive Weather Map New forecast layout! Learn more

10-Day Weather Forecast

Advertisements
Track Severe Weather on mobile